Latest Weather Observations for Fort Denison

IDN60801

Issued at 8:52 pm EDT Thursday 21 February 2019 (issued every 10 minutes, with the page automatically refreshed every 10 minutes)

About weather observations | Map of weather stations | Latest weather observations for NSW | Other Formats
Station Details ID: 066022 Name: FORT DENISON Lat: -33.86 Lon: 151.23 Height: 5.0 m
Data from the previous 72 hours. | See also: Recent months for locations in New South Wales
Date/Time
EDT
Temp
°C
App
Temp
°C
Dew
Point
°C
Rel
Hum
%
Delta-T
°C
Wind Press
QNH
hPa
Press
MSL
hPa
Rain since
9am
mm
Dir  Spd
km/h
Gust
km/h
Spd
kts
Gust
kts
21/08:30pm - - - - - SSW 19 26 10 14 - - -
21/08:00pm - - - - - SSW 15 26 8 14 - - -
21/07:30pm - - - - - SSW 19 30 10 16 - - -
21/07:00pm - - - - - SSW 17 26 9 14 - - -
21/06:30pm - - - - - S 20 32 11 17 - - -
21/06:00pm - - - - - S 20 32 11 17 - - -
21/05:30pm - - - - - S 19 28 10 15 - - -
21/05:00pm - - - - - S 20 30 11 16 - - -
21/04:30pm - - - - - S 19 32 10 17 - - -
21/04:00pm - - - - - SSW 17 24 9 13 - - -
21/03:30pm - - - - - S 19 30 10 16 - - -
21/03:00pm - - - - - S 20 32 11 17 - - -
21/02:30pm - - - - - S 20 33 11 18 - - -
21/02:00pm - - - - - SSW 22 32 12 17 - - -
21/01:30pm - - - - - S 19 30 10 16 - - -
21/01:00pm - - - - - SSW 17 24 9 13 - - -
21/12:30pm - - - - - SSW 13 20 7 11 - - -
21/12:00pm - - - - - S 15 24 8 13 - - -
21/11:30am - - - - - S 17 28 9 15 - - -
21/11:00am - - - - - SSW 17 24 9 13 - - -
21/10:30am - - - - - SSW 19 28 10 15 - - -
21/10:00am - - - - - SSW 19 30 10 16 - - -
21/09:30am - - - - - SSW 20 30 11 16 - - -
21/09:00am - - - - - SSW 19 24 10 13 - - -
21/08:30am - - - - - SSW 15 20 8 11 - - -
21/08:00am - - - - - SSW 15 22 8 12 - - -
21/07:30am - - - - - SSW 15 24 8 13 - - -
21/07:00am - - - - - SSW 15 26 8 14 - - -
21/06:30am - - - - - SSW 13 22 7 12 - - -
21/06:00am - - - - - SSW 13 20 7 11 - - -
21/05:30am - - - - - SSE 28 39 15 21 - - -
21/05:23am - - - - - SE 24 39 13 21 - - -
21/05:00am - - - - - ESE 13 20 7 11 - - -
21/04:30am - - - - - SE 13 19 7 10 - - -
21/04:00am - - - - - SE 19 28 10 15 - - -
21/03:30am - - - - - ESE 24 32 13 17 - - -
21/03:00am - - - - - ESE 28 35 15 19 - - -
21/02:30am - - - - - ESE 28 37 15 20 - - -
21/02:00am - - - - - SE 24 33 13 18 - - -
21/01:30am - - - - - SE 17 26 9 14 - - -
21/01:00am - - - - - SE 17 28 9 15 - - -
21/12:30am - - - - - SSE 13 22 7 12 - - -
21/12:00am - - - - - SE 15 20 8 11 - - -
 
Date/Time
EDT
Temp
°C
App
Temp
°C
Dew
Point
°C
Rel
Hum
%
Delta-T
°C
Wind Press
QNH
hPa
Press
MSL
hPa
Rain since
9am
mm
Dir  Spd
km/h
Gust
km/h
Spd
kts
Gust
kts
20/11:30pm - - - - - SE 13 19 7 10 - - -
20/11:00pm - - - - - SE 15 22 8 12 - - -
20/10:30pm - - - - - SE 15 20 8 11 - - -
20/10:00pm - - - - - SE 11 19 6 10 - - -
20/09:30pm - - - - - SE 13 20 7 11 - - -
20/09:00pm - - - - - SE 19 26 10 14 - - -
20/08:30pm - - - - - ESE 20 26 11 14 - - -
20/08:00pm - - - - - SE 22 32 12 17 - - -
20/07:30pm - - - - - SE 22 33 12 18 - - -
20/07:00pm - - - - - ESE 22 33 12 18 - - -
20/06:30pm - - - - - S 9 15 5 8 - - -
20/06:00pm - - - - - S 15 26 8 14 - - -
20/05:30pm - - - - - SSW 19 30 10 16 - - -
20/05:00pm - - - - - SSW 20 28 11 15 - - -
20/04:30pm - - - - - S 17 32 9 17 - - -
20/04:00pm - - - - - SSW 22 33 12 18 - - -
20/03:30pm - - - - - S 24 35 13 19 - - -
20/03:00pm - - - - - SSW 22 35 12 19 - - -
20/02:30pm - - - - - SSW 22 33 12 18 - - -
20/02:00pm - - - - - SSW 26 39 14 21 - - -
20/01:30pm - - - - - SSW 22 32 12 17 - - -
20/01:00pm - - - - - SSW 22 33 12 18 - - -
20/12:30pm - - - - - SSW 20 33 11 18 - - -
20/12:00pm - - - - - SSW 20 33 11 18 - - -
20/11:30am - - - - - SSW 17 26 9 14 - - -
20/11:00am - - - - - SSW 20 28 11 15 - - -
20/10:30am - - - - - SSW 20 28 11 15 - - -
20/10:00am - - - - - SSW 19 28 10 15 - - -
20/09:30am - - - - - SSW 20 30 11 16 - - -
20/09:00am - - - - - SSW 19 28 10 15 - - -
20/08:30am - - - - - SSW 9 17 5 9 - - -
20/08:00am - - - - - SW 15 22 8 12 - - -
20/07:30am - - - - - SSW 17 26 9 14 - - -
20/07:00am - - - - - SW 15 24 8 13 - - -
20/06:30am - - - - - SSW 15 22 8 12 - - -
20/06:00am - - - - - SSW 15 24 8 13 - - -
20/05:30am - - - - - SSW 17 24 9 13 - - -
20/05:00am - - - - - SSW 19 30 10 16 - - -
20/04:30am - - - - - SSW 15 24 8 13 - - -
20/04:00am - - - - - SSW 17 28 9 15 - - -
20/03:30am - - - - - SSW 17 24 9 13 - - -
20/03:00am - - - - - SW 15 26 8 14 - - -
20/02:30am - - - - - SSW 17 26 9 14 - - -
20/02:00am - - - - - SW 19 28 10 15 - - -
20/01:30am - - - - - SW 17 28 9 15 - - -
20/01:00am - - - - - SSW 19 28 10 15 - - -
20/12:30am - - - - - SSW 15 24 8 13 - - -
20/12:00am - - - - - SW 20 30 11 16 - - -
 
Date/Time
EDT
Temp
°C
App
Temp
°C
Dew
Point
°C
Rel
Hum
%
Delta-T
°C
Wind Press
QNH
hPa
Press
MSL
hPa
Rain since
9am
mm
Dir  Spd
km/h
Gust
km/h
Spd
kts
Gust
kts
19/11:30pm - - - - - SSW 22 35 12 19 - - -
19/11:00pm - - - - - SSW 20 33 11 18 - - -
19/10:30pm - - - - - SSW 24 37 13 20 - - -
19/10:00pm - - - - - SSW 28 39 15 21 - - -
19/09:30pm - - - - - SSW 24 35 13 19 - - -
19/09:00pm - - - - - SSW 22 33 12 18 - - -
19/08:30pm - - - - - SSW 24 39 13 21 - - -
19/08:00pm - - - - - S 20 35 11 19 - - -
19/07:30pm - - - - - S 24 37 13 20 - - -
19/07:00pm - - - - - SSW 26 44 14 24 - - -
19/06:30pm - - - - - SSW 28 43 15 23 - - -
19/06:00pm - - - - - S 22 37 12 20 - - -
19/05:37pm - - - - - SSW 28 46 15 25 - - -
19/05:30pm - - - - - SSW 22 37 12 20 - - -
19/05:00pm - - - - - SSW 22 43 12 23 - - -
19/04:30pm - - - - - S 28 50 15 27 - - -
19/04:00pm - - - - - S 30 48 16 26 - - -
19/03:30pm - - - - - S 33 56 18 30 - - -
19/03:01pm - - - - - S 33 54 18 29 - - -
19/03:00pm - - - - - S 33 50 18 27 - - -
19/02:30pm - - - - - SSE 39 61 21 33 - - -
19/02:07pm - - - - - S 35 54 19 29 - - -
19/02:00pm - - - - - SSE 39 52 21 28 - - -
19/01:30pm - - - - - S 35 56 19 30 - - -
19/01:00pm - - - - - S 28 46 15 25 - - -
19/12:30pm - - - - - S 30 46 16 25 - - -
19/12:24pm - - - - - S 28 46 15 25 - - -
19/12:00pm - - - - - S 26 44 14 24 - - -
19/11:30am - - - - - SSW 30 43 16 23 - - -
19/11:00am - - - - - S 24 35 13 19 - - -
19/10:30am - - - - - NNE 2 6 1 3 - - -
19/10:00am - - - - - WNW 7 9 4 5 - - -
19/09:30am - - - - - WNW 2 6 1 3 - - -
19/09:00am - - - - - WSW 15 19 8 10 - - -
19/08:30am - - - - - NW 7 13 4 7 - - -
19/08:00am - - - - - NW 7 13 4 7 - - -
19/07:30am - - - - - N 6 11 3 6 - - -
19/07:00am - - - - - NNE 7 19 4 10 - - -
19/06:30am - - - - - NE 11 19 6 10 - - -
19/06:00am - - - - - NNE 11 19 6 10 - - -
19/05:30am - - - - - ENE 17 24 9 13 - - -
19/05:00am - - - - - ENE 22 28 12 15 - - -
19/04:30am - - - - - E 26 32 14 17 - - -
19/04:00am - - - - - ESE 24 32 13 17 - - -
19/03:30am - - - - - SSE 7 11 4 6 - - -
19/03:00am - - - - - WSW 4 7 2 4 - - -
19/02:30am - - - - - SW 6 13 3 7 - - -
19/02:00am - - - - - E 11 15 6 8 - - -
19/01:30am - - - - - E 4 6 2 3 - - -
19/01:00am - - - - - SE 6 7 3 4 - - -
19/12:30am - - - - - ESE 17 19 9 10 - - -
19/12:00am - - - - - E 6 9 3 5 - - -
 
Date/Time
EDT
Temp
°C
App
Temp
°C
Dew
Point
°C
Rel
Hum
%
Delta-T
°C
Wind Press
QNH
hPa
Press
MSL
hPa
Rain since
9am
mm
Dir  Spd
km/h
Gust
km/h
Spd
kts
Gust
kts
18/11:30pm - - - - - SSW 17 28 9 15 - - -
18/11:00pm - - - - - SSE 6 13 3 7 - - -
18/10:30pm - - - - - NNE 15 28 8 15 - - -
18/10:00pm - - - - - NNE 24 35 13 19 - - -
18/09:30pm - - - - - NNE 28 44 15 24 - - -
18/09:07pm - - - - - NNE 33 50 18 27 - - -
18/09:00pm - - - - - NNE 33 48 18 26 - - -

Other formats

Comma delimited format used in spreadsheet applications
http://www.bom.gov.au/fwo/IDN60801/IDN60801.94769.axf

JavaScript Object Notation format (JSON) in row-major order
http://www.bom.gov.au/fwo/IDN60801/IDN60801.94769.json

Data quality

Most of these data are generated automatically and are frequently updated. Quality checks on data are not normally performed. It is possible for incorrect values to appear. Refer to information at About Latest Weather Observations and please check the disclaimer before using these data.